• Join FlightAware (Why Join?)
  • Login
  • US Flag 
02:12PM EST


 

Airport Tracker/Info


-or-


 

Live Flight TrackerFlight Track Log ✈ N988LL ✈ 01-Aug-2014 ✈ KOPF - KDHN

Flight Track Log - Related Links

Times and Time Zones

All times are in EDT time to prevent confusion due to time zone crossing. See the N988LL flight status page for this flight to view local times or setup timezone preferences in your user account.

Time Position Orientation Groundspeed Altitude Reporting Facility
EDT Latitude Longitude Course Direction KTS MPH feet Rate Location/Type
09:01AM 25.9017 -80.2731 194° South 79 91 200  Level Miami Center
09:02AM 25.8889 -80.2767 194° South 112 129 700 506 Climbing Miami Center
09:03AM 25.8953 -80.2836 316° Northwest 106 122 900 492 Climbing Miami Center
09:03AM 25.9125 -80.2994 320° Northwest 114 131 1,200 484 Climbing Miami Center
09:04AM 25.9206 -80.3047 329° Northwest 111 128 1,400 545 Climbing Miami Center
09:04AM 25.9344 -80.3194 316° Northwest 118 136 1,700 677 Climbing Miami Center
09:05AM 25.9508 -80.3331 323° Northwest 116 133 2,100 590 Climbing Miami Center
09:05AM 25.9600 -80.3447 311° West 123 142 2,300 492 Climbing Miami Center
09:06AM 25.9758 -80.3594 320° Northwest 119 137 2,600 492 Climbing Miami Center
09:06AM 25.9878 -80.3700 322° Northwest 124 143 2,800 484 Climbing Miami Center
09:07AM 26.0019 -80.3839 319° Northwest 120 138 3,100 484 Climbing Miami Center
09:07AM 26.0131 -80.3975 312° West 122 140 3,300 484 Climbing Miami Center
09:08AM 26.0272 -80.4094 323° Northwest 121 139 3,600 492 Climbing Miami Center
09:08AM 26.0389 -80.4228 314° West 123 142 3,800 492 Climbing Miami Center
09:09AM 26.0517 -80.4347 320° Northwest 121 139 4,100 492 Climbing Miami Center
09:09AM 26.0644 -80.4481 317° Northwest 121 139 4,300 387 Climbing Miami Center
09:10AM 26.0775 -80.4592 323° Northwest 121 139 4,500 197 Climbing Miami Center
09:10AM 26.0919 -80.4756 314° West 137 158 4,500  Level Miami Center
09:11AM 26.1064 -80.4869 325° Northwest 134 154 4,500  Level Miami Center
09:11AM 26.1236 -80.5058 315° West 152 175 4,500  Level Miami Center
09:12AM 26.1458 -80.5250 322° Northwest 152 175 4,500  Level Miami Center
09:12AM 26.1569 -80.5389 312° West 154 177 4,500  Level Miami Center
09:13AM 26.1769 -80.5569 321° Northwest 153 176 4,500  Level Miami Center
09:14AM 26.2083 -80.5869 319° Northwest 152 175 4,500  Level Miami Center
09:15AM 26.2381 -80.6178 317° Northwest 150 173 4,500 48 Level Miami Center
09:16AM 26.2708 -80.6511 318° Northwest 148 170 4,600 49 Climbing Miami Center
09:17AM 26.3039 -80.6839 318° Northwest 148 170 4,600 146 Level Miami Center
09:18AM 26.3325 -80.7133 317° Northwest 141 162 4,900 387 Climbing Miami Center
09:19AM 26.3583 -80.7397 318° Northwest 128 147 5,400 439 Climbing Miami Center
09:20AM 26.3872 -80.7683 318° Northwest 128 147 5,800 390 Climbing Miami Center
09:21AM 26.4144 -80.7942 320° Northwest 129 148 6,200 387 Climbing Miami Center
09:22AM 26.4417 -80.8219 318° Northwest 132 152 6,600 195 Climbing Miami Center
09:23AM 26.4725 -80.8536 317° Northwest 137 158 6,600  Level Miami Center
09:24AM 26.5061 -80.8853 320° Northwest 157 181 6,600 -48 Level Miami Center
09:25AM 26.5392 -80.9186 318° Northwest 157 181 6,500 -48 Descending Miami Center
09:26AM 26.5714 -80.9519 317° Northwest 154 177 6,500  Level Miami Center
09:27AM 26.6047 -80.9833 320° Northwest 151 174 6,500  Level Miami Center
09:28AM 26.6347 -81.0142 317° Northwest 151 174 6,500  Level Miami Center
09:29AM 26.6661 -81.0472 317° Northwest 150 173 6,500 48 Level Miami Center
09:30AM 26.6983 -81.0792 318° Northwest 150 173 6,600 49 Climbing Miami Center
09:31AM 26.7308 -81.1119 318° Northwest 149 171 6,600  Level Miami Center
09:33AM 26.7606 -81.1417 318° Northwest 148 170 6,600 -48 Level Miami Center
09:34AM 26.7928 -81.1744 318° Northwest 148 170 6,500 -48 Descending Miami Center
09:35AM 26.8225 -81.2044 318° Northwest 147 169 6,500  Level Miami Center
09:36AM 26.8542 -81.2364 318° Northwest 146 168 6,500  Level Miami Center
09:37AM 26.8833 -81.2658 318° Northwest 144 166 6,500  Level Miami Center
09:38AM 26.9142 -81.2978 317° Northwest 142 163 6,500  Level Miami Center
09:39AM 26.9419 -81.3264 317° Northwest 138 159 6,500  Level Miami Center
09:40AM 26.9733 -81.3567 319° Northwest 140 161 6,500  Level Miami Center
09:41AM 27.0019 -81.3853 318° Northwest 139 160 6,500  Level Miami Center
09:42AM 27.0281 -81.4117 318° Northwest 140 161 6,500  Level Miami Center
09:43AM 27.0572 -81.4408 318° Northwest 140 161 6,500  Level Miami Center
09:44AM 27.0922 -81.4775 317° Northwest 141 162 6,500  Level Miami Center
09:45AM 27.1219 -81.5072 318° Northwest 144 166 6,500  Level Miami Center
09:46AM 27.1497 -81.5361 317° Northwest 141 162 6,500  Level Miami Center
09:47AM 27.1789 -81.5658 318° Northwest 140 161 6,500  Level Miami Center
09:48AM 27.2083 -81.5942 319° Northwest 141 162 6,500  Level Miami Center
09:49AM 27.2456 -81.6117 337° Northwest 144 166 6,500 -15 Level Miami Center
09:55AM 27.4523 -81.7103 337° Northwest 141 162 6,400 -13 Descending FlightAware ADS-B
09:57AM 27.5241 -81.7449 337° Northwest 141 162 6,400  Level FlightAware ADS-B
09:57AM 27.5371 -81.7512 337° Northwest 141 162 6,400  Level FlightAware ADS-B
09:57AM 27.5527 -81.7586 337° Northwest 140 161 6,400  Level FlightAware ADS-B
09:58AM 27.5650 -81.7645 337° Northwest 140 161 6,400  Level FlightAware ADS-B
09:58AM 27.5656 -81.7648 337° Northwest 141 162 6,400  Level FlightAware ADS-B
09:58AM 27.5778 -81.7707 337° Northwest 143 165 6,400  Level FlightAware ADS-B
09:59AM 27.6174 -81.7898 337° Northwest 142 163 6,400  Level FlightAware ADS-B
10:00AM 27.6368 -81.7991 337° Northwest 143 165 6,400  Level FlightAware ADS-B
10:01AM 27.6864 -81.8230 337° Northwest 143 165 6,400  Level FlightAware ADS-B
10:01AM 27.6967 -81.8279 337° Northwest 143 165 6,400  Level FlightAware ADS-B
10:02AM 27.7324 -81.8451 337° Northwest 143 165 6,400  Level FlightAware ADS-B
10:04AM 27.8011 -81.8783 337° Northwest 149 171 6,400  Level FlightAware ADS-B
10:05AM 27.8403 -81.8971 337° Northwest 146 168 6,400 -203 Level FlightAware ADS-B
10:11AM 28.0565 -82.0012 337° Northwest 171 197 5,100 -262 Descending FlightAware ADS-B
10:11AM 28.0844 -82.0147 337° Northwest 172 198 4,800 -310 Descending FlightAware ADS-B
10:12AM 28.1333 -82.0500 337° Northwest 172 198 4,500 -129 Descending Tampa TRACON
10:14AM 28.1833 -82.0667 344° North 152 175 4,500  Level Tampa TRACON
10:15AM 28.2167 -82.0500 24° Northeast 156 180 4,500  Level Tampa TRACON
10:16AM 28.2333 -82.0000 69° East 153 176 4,500  Level Tampa TRACON
10:17AM 28.2500 -81.9667 60° Northeast 154 177 4,500 -108 Level Tampa TRACON
10:18AM 28.3000 -81.8833 56° Northeast 158 182 4,200 -162 Descending Orlando TRACON
10:24AM 28.4266 -81.6388 43° Northeast 160 184 3,300 -172 Descending FlightAware ADS-B
10:25AM 28.4439 -81.6065 68° East 167 192 3,100 -200 Descending FlightAware ADS-B
10:25AM 28.4484 -81.5943 67° East 163 188 3,100  Level FlightAware ADS-B
10:25AM 28.4554 -81.5757 67° East 158 182 3,100  Level FlightAware ADS-B
10:26AM 28.4613 -81.5600 67° East 157 181 3,100  Level FlightAware ADS-B
10:26AM 28.4671 -81.5445 67° East 156 180 3,100 -279 Level FlightAware ADS-B
10:26AM 28.4729 -81.5291 68° East 166 191 2,900 -667 Descending FlightAware ADS-B
10:27AM 28.4857 -81.4937 68° East 177 204 2,400 -762 Descending FlightAware ADS-B
10:28AM 28.4928 -81.4741 68° East 176 203 2,100 -837 Descending FlightAware ADS-B
10:28AM 28.4987 -81.4579 68° East 174 200 1,800 -789 Descending FlightAware ADS-B
10:28AM 28.5049 -81.4411 67° East 170 196 1,600 -714 Descending FlightAware ADS-B
10:29AM 28.5122 -81.4210 68° East 166 191 1,300 -375 Descending FlightAware ADS-B
10:29AM 28.5224 -81.3931 68° East 133 153 1,200 -100 Descending FlightAware ADS-B
10:30AM 28.5278 -81.3834 18° North 116 133 1,200  Level FlightAware ADS-B
10:30AM 28.5360 -81.3877 277° West 105 121 1,200 -150 Level FlightAware ADS-B
10:30AM 28.5306 -81.3949 177° South 104 120 1,100 -293 Descending FlightAware ADS-B
10:31AM 28.5244 -81.3873 83° East 109 125 1,000 -200 Descending FlightAware ADS-B
10:31AM 28.5327 -81.3658 67° East 101 116 900 -532 Descending FlightAware ADS-B
10:32AM 28.5395 -81.3478 66° East 101 116 300 -923 Descending FlightAware ADS-B
10:39AM 28.6707 -81.5817 303° West  Level FlightAware Approximate
10:40AM 28.6905 -81.6170 303° West  Level FlightAware Approximate
10:41AM 28.7102 -81.6523 303° West  Level FlightAware Approximate
10:42AM 28.7299 -81.6876 302° West  Level FlightAware Approximate
10:43AM 28.7497 -81.7230 302° West  Level FlightAware Approximate
10:44AM 28.7694 -81.7583 302° West  Level FlightAware Approximate
10:45AM 28.7891 -81.7937 302° West  Level FlightAware Approximate
10:46AM 28.8088 -81.8291 302° West  Level FlightAware Approximate
10:47AM 28.8284 -81.8645 302° West  Level FlightAware Approximate
10:48AM 28.8519 -81.8968 310° West  Level Estimated
10:49AM 28.8751 -81.9292 309° West  Level FlightAware Approximate
10:50AM 28.8984 -81.9617 309° West  Level FlightAware Approximate
10:51AM 28.9216 -81.9942 309° West  Level FlightAware Approximate
10:52AM 28.9448 -82.0267 309° West  Level FlightAware Approximate
10:53AM 28.9680 -82.0593 309° West  Level FlightAware Approximate
10:54AM 28.9912 -82.0918 309° West  Level FlightAware Approximate
10:55AM 29.0144 -82.1244 309° West  Level FlightAware Approximate
10:56AM 29.0376 -82.1569 309° West  Level FlightAware Approximate
10:57AM 29.0608 -82.1895 309° West  Level FlightAware Approximate
10:58AM 29.0840 -82.2221 309° West  Level FlightAware Approximate
10:59AM 29.1071 -82.2548 309° West  Level FlightAware Approximate
11:00AM 29.1303 -82.2874 309° West  Level FlightAware Approximate
11:01AM 29.1535 -82.3200 309° West  Level FlightAware Approximate
11:02AM 29.1766 -82.3527 309° West  Level FlightAware Approximate
11:03AM 29.1997 -82.3854 309° West  Level FlightAware Approximate
11:04AM 29.2229 -82.4181 309° West  Level FlightAware Approximate
11:05AM 29.2460 -82.4508 309° West  Level FlightAware Approximate
11:06AM 29.2691 -82.4835 309° West  Level FlightAware Approximate
11:07AM 29.2922 -82.5162 309° West  Level FlightAware Approximate
11:08AM 29.3153 -82.5490 309° West  Level FlightAware Approximate
11:09AM 29.3384 -82.5817 309° West  Level FlightAware Approximate
11:10AM 29.3614 -82.6145 309° West  Level FlightAware Approximate
11:11AM 29.3845 -82.6473 309° West  Level FlightAware Approximate
11:12AM 29.4076 -82.6801 309° West  Level FlightAware Approximate
11:13AM 29.4306 -82.7130 309° West  Level FlightAware Approximate
11:14AM 29.4537 -82.7458 309° West  Level FlightAware Approximate
11:15AM 29.4767 -82.7786 309° West  Level FlightAware Approximate
11:16AM 29.4998 -82.8115 309° West  Level FlightAware Approximate
11:17AM 29.5228 -82.8444 309° West  Level FlightAware Approximate
11:18AM 29.5460 -82.8771 309° West  Level Estimated
11:19AM 29.5691 -82.9100 309° West  Level FlightAware Approximate
11:20AM 29.5921 -82.9429 309° West  Level FlightAware Approximate
11:21AM 29.6151 -82.9758 309° West  Level FlightAware Approximate
11:22AM 29.6381 -83.0087 309° West  Level FlightAware Approximate
11:23AM 29.6611 -83.0417 309° West  Level FlightAware Approximate
11:24AM 29.6841 -83.0746 309° West  Level FlightAware Approximate
11:25AM 29.7071 -83.1076 309° West  Level FlightAware Approximate
11:26AM 29.7301 -83.1406 309° West  Level FlightAware Approximate
11:27AM 29.7530 -83.1736 309° West  Level FlightAware Approximate
11:28AM 29.7760 -83.2067 309° West  Level FlightAware Approximate
11:29AM 29.7989 -83.2397 309° West  Level FlightAware Approximate
11:30AM 29.8219 -83.2728 309° West  Level FlightAware Approximate
11:31AM 29.8448 -83.3058 309° West  Level FlightAware Approximate
11:32AM 29.8677 -83.3389 309° West  Level FlightAware Approximate
11:33AM 29.8906 -83.3720 309° West  Level FlightAware Approximate
11:34AM 29.9136 -83.4052 309° West  Level FlightAware Approximate
11:35AM 29.9365 -83.4383 309° West  Level FlightAware Approximate
11:36AM 29.9594 -83.4714 309° West  Level FlightAware Approximate
11:37AM 29.9822 -83.5046 309° West  Level FlightAware Approximate
11:38AM 30.0051 -83.5378 309° West  Level FlightAware Approximate
11:39AM 30.0280 -83.5710 309° West  Level FlightAware Approximate
11:40AM 30.0508 -83.6042 308° West  Level FlightAware Approximate
11:41AM 30.0737 -83.6374 308° West  Level FlightAware Approximate
11:42AM 30.0969 -83.6703 309° West  Level Estimated
11:43AM 30.1199 -83.7034 309° West  Level FlightAware Approximate
11:44AM 30.1429 -83.7365 309° West  Level FlightAware Approximate
11:45AM 30.1659 -83.7697 309° West  Level FlightAware Approximate
11:46AM 30.1889 -83.8028 309° West  Level FlightAware Approximate
11:47AM 30.2118 -83.8360 309° West  Level FlightAware Approximate
11:48AM 30.2348 -83.8691 309° West  Level FlightAware Approximate
11:49AM 30.2578 -83.9023 309° West  Level FlightAware Approximate
11:50AM 30.2807 -83.9355 309° West  Level FlightAware Approximate
11:51AM 30.3037 -83.9687 309° West  Level FlightAware Approximate
11:52AM 30.3266 -84.0020 309° West  Level FlightAware Approximate
11:53AM 30.3495 -84.0352 309° West  Level FlightAware Approximate
11:54AM 30.3724 -84.0685 309° West  Level FlightAware Approximate
11:55AM 30.3953 -84.1018 309° West  Level FlightAware Approximate
11:56AM 30.4182 -84.1350 309° West  Level FlightAware Approximate
11:57AM 30.4411 -84.1684 309° West  Level FlightAware Approximate
11:58AM 30.4640 -84.2017 309° West  Level FlightAware Approximate
11:59AM 30.4869 -84.2350 309° West  Level FlightAware Approximate
12:00PM 30.5098 -84.2684 309° West  Level FlightAware Approximate
12:01PM 30.5326 -84.3018 308° West  Level FlightAware Approximate
12:02PM 30.5555 -84.3352 308° West  Level FlightAware Approximate
12:03PM 30.5783 -84.3686 308° West  Level FlightAware Approximate
12:04PM 30.6012 -84.4020 308° West  Level FlightAware Approximate
12:05PM 30.6240 -84.4354 308° West  Level FlightAware Approximate
12:06PM 30.6468 -84.4689 308° West  Level FlightAware Approximate
12:07PM 30.6696 -84.5023 308° West  Level FlightAware Approximate
12:08PM 30.6924 -84.5358 308° West  Level FlightAware Approximate
12:09PM 30.7152 -84.5693 308° West  Level FlightAware Approximate
12:10PM 30.7380 -84.6028 308° West  Level FlightAware Approximate
12:11PM 30.7608 -84.6364 308° West  Level FlightAware Approximate
12:12PM 30.7835 -84.6699 308° West  Level FlightAware Approximate
12:13PM 30.8063 -84.7035 308° West  Level FlightAware Approximate
12:14PM 30.8290 -84.7370 308° West  Level FlightAware Approximate
12:15PM 30.8518 -84.7706 308° West  Level FlightAware Approximate
12:16PM 30.8745 -84.8042 308° West  Level FlightAware Approximate
12:17PM 30.8977 -84.8374 310° West  Level Estimated
12:18PM 30.9210 -84.8705 310° West  Level FlightAware Approximate
12:19PM 30.9444 -84.9035 310° West  Level FlightAware Approximate
12:20PM 30.9678 -84.9365 310° West  Level FlightAware Approximate
12:21PM 30.9911 -84.9696 309° West  Level FlightAware Approximate
12:22PM 31.0145 -85.0027 309° West  Level FlightAware Approximate
12:23PM 31.0378 -85.0358 309° West  Level FlightAware Approximate
12:24PM 31.0612 -85.0689 309° West  Level FlightAware Approximate
12:25PM 31.0845 -85.1020 309° West  Level FlightAware Approximate
12:26PM 31.1078 -85.1352 309° West  Level FlightAware Approximate
12:27PM 31.1311 -85.1683 309° West  Level FlightAware Approximate
12:28PM 31.1544 -85.2015 309° West  Level FlightAware Approximate
12:29PM 31.1777 -85.2347 309° West  Level FlightAware Approximate
12:30PM 31.2010 -85.2679 309° West  Level FlightAware Approximate
12:31PM 31.2243 -85.3011 309° West  Level FlightAware Approximate
12:32PM 31.2475 -85.3344 309° West  Level FlightAware Approximate
12:33PM 31.2708 -85.3676 309° West  Level FlightAware Approximate
12:34PM 31.2922 -85.4025 310° West  Level Estimated
12:35PM 31.3136 -85.4374 306° West  Level Estimated
12:36PM 31.3210 -85.4495 306° West  Level Estimated
12:37PM 31.3210 -85.4495 North  Level Estimated
12:38PM 31.3210 -85.4495 North  Level Estimated
12:39PM 31.3210 -85.4495 North  Level Estimated
12:40PM 31.3210 -85.4495 North  Level Estimated
12:41PM 31.3210 -85.4495 North  Level Estimated
12:42PM 31.3210 -85.4495 North  Level Estimated
12:43PM 31.3210 -85.4495 North  Level Estimated
12:44PM 31.3210 -85.4495 North  Level Estimated
12:45PM 31.3210 -85.4495 North  Level Estimated
12:46PM 31.3210 -85.4495 North  Level Estimated
12:47PM 31.3210 -85.4495 North  Level Estimated
12:48PM 31.3210 -85.4495 North  Level Estimated
12:49PM 31.3210 -85.4495 North  Level Estimated
12:50PM 31.3210 -85.4495 North  Level Estimated
12:51PM 31.3210 -85.4495 North  Level Estimated
12:52PM 31.3210 -85.4495 North  Level Estimated
12:53PM 31.3210 -85.4495 North  Level Estimated
12:54PM 31.3210 -85.4495 North  Level Estimated
12:55PM 31.3210 -85.4495 North  Level Estimated
12:56PM 31.3210 -85.4495 North  Level Estimated